PWSweather.com
Personal Weather Stations
Station Observations
COONRAPIDS
Minneapolis, MN 55433

Minneapolis, MN 55433

Lat: 45.187721, Lon: -93.36828

Elevation: 898

Station Type: Davis Vantage Pro 2

High Low Average
Temperature 49.8°F9.9°C 41.3°F5.2°C 45.7°F7.6°C
Dew Point 45.0°F7.2°C 36.2°F2.3°C 41.3°F5.2°C
Winds 2.3 mph 3.7 kmh Calm Calm Calm NECalm NE
Wind Gusts 4.6 mph7.4 kmh -- --
Humidity 89% 80% 85%
Pressure 30.29 in1025.7 mb 30.13 in1020.3 mb -
Precipitation 0.08 in2.0 mm - -
Hour Temp Dew Point Humidity Winds Wind Gusts Pressure Precip Precip Rate Daily Precip Total
12:00 AM 45.5°F7.5°C 40.6°F4.8°C 83% Calm Calm -- 30.27 in1025.1 mb - 0.00 in0.0 mm 0.00 in0.0 mm
12:10 AM 45.5°F7.5°C 40.3°F4.6°C 82% Calm Calm -- 30.28 in1025.4 mb - 0.00 in0.0 mm 0.00 in0.0 mm
12:20 AM 45.5°F7.5°C 40.0°F4.4°C 81% Calm Calm -- 30.28 in1025.4 mb - 0.00 in0.0 mm 0.00 in0.0 mm
12:30 AM 45.4°F7.4°C 39.9°F4.4°C 81% Calm Calm -- 30.28 in1025.4 mb - 0.00 in0.0 mm 0.00 in0.0 mm
12:40 AM 45.3°F7.4°C 39.5°F4.2°C 80% Calm Calm 2.3 mph3.7 kmh 30.28 in1025.4 mb - 0.00 in0.0 mm 0.00 in0.0 mm
12:50 AM 45.2°F7.3°C 39.4°F4.1°C 80% Calm Calm -- 30.28 in1025.4 mb - 0.00 in0.0 mm 0.00 in0.0 mm
01:00 AM 45.2°F7.3°C 39.7°F4.3°C 81% Calm Calm -- 30.28 in1025.4 mb - 0.00 in0.0 mm 0.00 in0.0 mm
01:10 AM 45.1°F7.3°C 39.6°F4.2°C 81% Calm Calm -- 30.28 in1025.4 mb - 0.00 in0.0 mm 0.00 in0.0 mm
01:20 AM 44.9°F7.2°C 39.1°F3.9°C 80% Calm Calm -- 30.29 in1025.7 mb - 0.00 in0.0 mm 0.00 in0.0 mm
01:30 AM 44.3°F6.8°C 38.5°F3.6°C 80% Calm Calm -- 30.28 in1025.4 mb - 0.00 in0.0 mm 0.00 in0.0 mm
01:40 AM 44.0°F6.7°C 38.2°F3.4°C 80% Calm Calm -- 30.29 in1025.7 mb - 0.00 in0.0 mm 0.00 in0.0 mm
01:50 AM 43.6°F6.4°C 38.2°F3.4°C 81% Calm Calm -- 30.29 in1025.7 mb - 0.00 in0.0 mm 0.00 in0.0 mm
02:00 AM 43.3°F6.3°C 37.9°F3.3°C 81% Calm Calm -- 30.29 in1025.7 mb - 0.00 in0.0 mm 0.00 in0.0 mm
02:10 AM 43.0°F6.1°C 37.6°F3.1°C 81% Calm Calm -- 30.28 in1025.4 mb - 0.00 in0.0 mm 0.00 in0.0 mm
02:20 AM 42.8°F6.0°C 37.4°F3.0°C 81% Calm Calm -- 30.28 in1025.4 mb - 0.00 in0.0 mm 0.00 in0.0 mm
02:30 AM 42.7°F5.9°C 37.3°F2.9°C 81% Calm Calm -- 30.29 in1025.7 mb - 0.00 in0.0 mm 0.00 in0.0 mm
02:40 AM 42.6°F5.9°C 37.2°F2.9°C 81% Calm Calm -- 30.29 in1025.7 mb - 0.00 in0.0 mm 0.00 in0.0 mm
02:50 AM 42.4°F5.8°C 37.0°F2.8°C 81% Calm Calm -- 30.29 in1025.7 mb - 0.00 in0.0 mm 0.00 in0.0 mm
03:00 AM 42.1°F5.6°C 36.7°F2.6°C 81% Calm Calm -- 30.29 in1025.7 mb - 0.00 in0.0 mm 0.00 in0.0 mm
03:10 AM 41.8°F5.4°C 36.7°F2.6°C 82% Calm Calm -- 30.29 in1025.7 mb - 0.00 in0.0 mm 0.00 in0.0 mm
03:20 AM 41.5°F5.3°C 36.4°F2.4°C 82% Calm Calm -- 30.29 in1025.7 mb - 0.00 in0.0 mm 0.00 in0.0 mm
03:30 AM 41.3°F5.2°C 36.2°F2.3°C 82% Calm Calm -- 30.29 in1025.7 mb - 0.00 in0.0 mm 0.00 in0.0 mm
03:40 AM 41.4°F5.2°C 36.9°F2.7°C 84% Calm Calm -- 30.28 in1025.4 mb - 0.00 in0.0 mm 0.00 in0.0 mm
03:50 AM 41.8°F5.4°C 37.6°F3.1°C 85% Calm Calm -- 30.28 in1025.4 mb - 0.00 in0.0 mm 0.00 in0.0 mm
04:00 AM 41.9°F5.5°C 37.7°F3.2°C 85% Calm Calm -- 30.27 in1025.1 mb - 0.00 in0.0 mm 0.00 in0.0 mm
04:10 AM 41.8°F5.4°C 37.3°F2.9°C 84% Calm Calm -- 30.27 in1025.1 mb - 0.00 in0.0 mm 0.00 in0.0 mm
04:20 AM 41.7°F5.4°C 37.2°F2.9°C 84% Calm Calm -- 30.27 in1025.1 mb - 0.00 in0.0 mm 0.00 in0.0 mm
04:30 AM 41.8°F5.4°C 37.3°F2.9°C 84% Calm Calm 1.2 mph1.9 kmh 30.27 in1025.1 mb - 0.00 in0.0 mm 0.00 in0.0 mm
04:40 AM 41.8°F5.4°C 37.0°F2.8°C 83% Calm Calm -- 30.27 in1025.1 mb - 0.00 in0.0 mm 0.00 in0.0 mm
04:50 AM 41.8°F5.4°C 37.0°F2.8°C 83% Calm Calm -- 30.27 in1025.1 mb - 0.00 in0.0 mm 0.00 in0.0 mm
05:00 AM 41.8°F5.4°C 37.0°F2.8°C 83% Calm Calm -- 30.27 in1025.1 mb - 0.00 in0.0 mm 0.00 in0.0 mm
05:10 AM 41.8°F5.4°C 37.0°F2.8°C 83% Calm Calm -- 30.26 in1024.7 mb - 0.00 in0.0 mm 0.00 in0.0 mm
05:20 AM 41.8°F5.4°C 37.3°F2.9°C 84% Calm Calm -- 30.26 in1024.7 mb - 0.00 in0.0 mm 0.00 in0.0 mm
05:30 AM 41.6°F5.3°C 37.1°F2.8°C 84% Calm Calm -- 30.25 in1024.4 mb - 0.00 in0.0 mm 0.00 in0.0 mm
05:40 AM 41.5°F5.3°C 37.0°F2.8°C 84% Calm Calm -- 30.25 in1024.4 mb - 0.00 in0.0 mm 0.00 in0.0 mm
05:50 AM 41.4°F5.2°C 36.9°F2.7°C 84% Calm Calm -- 30.26 in1024.7 mb - 0.00 in0.0 mm 0.00 in0.0 mm
06:00 AM 41.4°F5.2°C 37.3°F2.9°C 85% Calm Calm -- 30.25 in1024.4 mb - 0.00 in0.0 mm 0.00 in0.0 mm
06:10 AM 41.6°F5.3°C 37.4°F3.0°C 85% Calm Calm -- 30.26 in1024.7 mb - 0.00 in0.0 mm 0.00 in0.0 mm
06:20 AM 41.7°F5.4°C 37.5°F3.1°C 85% Calm Calm -- 30.25 in1024.4 mb - 0.00 in0.0 mm 0.00 in0.0 mm
06:30 AM 41.8°F5.4°C 37.6°F3.1°C 85% Calm Calm -- 30.25 in1024.4 mb - 0.00 in0.0 mm 0.00 in0.0 mm
06:40 AM 41.8°F5.4°C 37.6°F3.1°C 85% Calm Calm -- 30.25 in1024.4 mb - 0.00 in0.0 mm 0.00 in0.0 mm
06:50 AM 41.9°F5.5°C 37.7°F3.2°C 85% Calm Calm -- 30.25 in1024.4 mb - 0.00 in0.0 mm 0.00 in0.0 mm
07:00 AM 42.0°F5.6°C 37.8°F3.2°C 85% Calm Calm -- 30.26 in1024.7 mb - 0.00 in0.0 mm 0.00 in0.0 mm
07:10 AM 42.2°F5.7°C 38.0°F3.3°C 85% Calm Calm -- 30.25 in1024.4 mb - 0.00 in0.0 mm 0.00 in0.0 mm
07:20 AM 42.3°F5.7°C 38.1°F3.4°C 85% Calm Calm -- 30.25 in1024.4 mb - 0.00 in0.0 mm 0.00 in0.0 mm
07:30 AM 42.6°F5.9°C 38.4°F3.6°C 85% Calm Calm 1.2 mph1.9 kmh 30.25 in1024.4 mb - 0.00 in0.0 mm 0.00 in0.0 mm
07:40 AM 42.9°F6.1°C 38.7°F3.7°C 85% Calm Calm -- 30.25 in1024.4 mb - 0.00 in0.0 mm 0.00 in0.0 mm
07:50 AM 43.3°F6.3°C 39.1°F3.9°C 85% Calm Calm -- 30.25 in1024.4 mb - 0.00 in0.0 mm 0.00 in0.0 mm
08:00 AM 43.6°F6.4°C 39.4°F4.1°C 85% Calm Calm -- 30.25 in1024.4 mb - 0.00 in0.0 mm 0.00 in0.0 mm
08:10 AM 43.9°F6.6°C 39.7°F4.3°C 85% Calm Calm -- 30.25 in1024.4 mb - 0.00 in0.0 mm 0.00 in0.0 mm
08:20 AM 44.2°F6.8°C 39.7°F4.3°C 84% Calm Calm 1.2 mph1.9 kmh 30.25 in1024.4 mb - 0.00 in0.0 mm 0.00 in0.0 mm
08:30 AM 44.5°F6.9°C 40.0°F4.4°C 84% Calm Calm 1.2 mph1.9 kmh 30.25 in1024.4 mb - 0.00 in0.0 mm 0.00 in0.0 mm
08:40 AM 44.7°F7.1°C 39.9°F4.4°C 83% Calm Calm 1.2 mph1.9 kmh 30.25 in1024.4 mb - 0.00 in0.0 mm 0.00 in0.0 mm
08:50 AM 44.8°F7.1°C 40.0°F4.4°C 83% Calm Calm -- 30.25 in1024.4 mb - 0.00 in0.0 mm 0.00 in0.0 mm
09:00 AM 44.9°F7.2°C 40.1°F4.5°C 83% Calm Calm 2.3 mph3.7 kmh 30.25 in1024.4 mb - 0.00 in0.0 mm 0.00 in0.0 mm
09:10 AM 45.1°F7.3°C 40.2°F4.6°C 83% Calm Calm -- 30.24 in1024.0 mb - 0.00 in0.0 mm 0.00 in0.0 mm
09:20 AM 45.2°F7.3°C 40.3°F4.6°C 83% Calm Calm 2.3 mph3.7 kmh 30.24 in1024.0 mb - 0.00 in0.0 mm 0.00 in0.0 mm
09:30 AM 45.3°F7.4°C 40.7°F4.8°C 84% Calm Calm -- 30.25 in1024.4 mb - 0.00 in0.0 mm 0.00 in0.0 mm
09:40 AM 45.5°F7.5°C 40.9°F4.9°C 84% Calm Calm -- 30.25 in1024.4 mb - 0.00 in0.0 mm 0.00 in0.0 mm
09:50 AM 45.7°F7.6°C 41.1°F5.1°C 84% Calm Calm -- 30.23 in1023.7 mb - 0.00 in0.0 mm 0.00 in0.0 mm
10:00 AM 45.8°F7.7°C 41.2°F5.1°C 84% Calm Calm -- 30.21 in1023.0 mb - 0.00 in0.0 mm 0.00 in0.0 mm
10:10 AM 45.9°F7.7°C 41.3°F5.2°C 84% Calm Calm -- 30.23 in1023.7 mb - 0.00 in0.0 mm 0.00 in0.0 mm
10:20 AM 46.0°F7.8°C 41.4°F5.2°C 84% Calm Calm -- 30.20 in1022.7 mb - 0.00 in0.0 mm 0.00 in0.0 mm
10:30 AM 46.0°F7.8°C 41.4°F5.2°C 84% 1.2 mph NE1.9 kmh NE 1.2 mph1.9 kmh 30.19 in1022.4 mb - 0.01 in0.3 mm 0.01 in0.3 mm
10:40 AM 46.3°F7.9°C 41.7°F5.4°C 84% Calm Calm -- 30.20 in1022.7 mb - 0.01 in0.3 mm 0.01 in0.3 mm
10:50 AM 46.2°F7.9°C 41.6°F5.3°C 84% Calm Calm -- 30.22 in1023.4 mb - 0.00 in0.0 mm 0.01 in0.3 mm
11:00 AM 46.2°F7.9°C 42.0°F5.6°C 85% Calm Calm -- 30.23 in1023.7 mb - 0.00 in0.0 mm 0.01 in0.3 mm
11:10 AM 46.2°F7.9°C 41.9°F5.5°C 85% Calm Calm -- 30.23 in1023.7 mb - 0.01 in0.3 mm 0.02 in0.5 mm
11:20 AM 46.2°F7.9°C 42.0°F5.6°C 85% Calm Calm 2.3 mph3.7 kmh 30.22 in1023.4 mb - 0.04 in1.0 mm 0.06 in1.5 mm
11:30 AM 46.2°F7.9°C 42.2°F5.7°C 86% Calm Calm -- 30.21 in1023.0 mb - 0.02 in0.5 mm 0.08 in2.0 mm
11:40 AM 46.2°F7.9°C 42.2°F5.7°C 86% Calm Calm -- 30.22 in1023.4 mb - 0.01 in0.3 mm 0.08 in2.0 mm
11:50 AM 46.2°F7.9°C 42.5°F5.8°C 87% Calm Calm -- 30.21 in1023.0 mb - 0.00 in0.0 mm 0.08 in2.0 mm
12:00 PM 46.2°F7.9°C 42.5°F5.8°C 87% Calm Calm -- 30.21 in1023.0 mb - 0.00 in0.0 mm 0.08 in2.0 mm
12:10 PM 46.4°F8.0°C 42.7°F5.9°C 87% Calm Calm 3.5 mph5.6 kmh 30.20 in1022.7 mb - 0.00 in0.0 mm 0.08 in2.0 mm
12:20 PM 46.7°F8.2°C 43.0°F6.1°C 87% 1.2 mph NE1.9 kmh NE 3.5 mph5.6 kmh 30.18 in1022.0 mb - 0.00 in0.0 mm 0.08 in2.0 mm
12:30 PM 46.7°F8.2°C 43.0°F6.1°C 87% 1.2 mph NE1.9 kmh NE 2.3 mph3.7 kmh 30.19 in1022.4 mb - 0.00 in0.0 mm 0.08 in2.0 mm
12:40 PM 46.8°F8.2°C 43.1°F6.2°C 87% 1.2 mph ENE1.9 kmh ENE 2.3 mph3.7 kmh 30.19 in1022.4 mb - 0.00 in0.0 mm 0.08 in2.0 mm
12:50 PM 47.0°F8.3°C 43.6°F6.4°C 88% Calm Calm -- 30.18 in1022.0 mb - 0.00 in0.0 mm 0.08 in2.0 mm
01:00 PM 47.3°F8.5°C 44.0°F6.7°C 88% 1.2 mph NE1.9 kmh NE 2.3 mph3.7 kmh 30.17 in1021.7 mb - 0.00 in0.0 mm 0.08 in2.0 mm
01:10 PM 48.1°F8.9°C 44.7°F7.1°C 88% 2.3 mph ENE3.7 kmh ENE 3.5 mph5.6 kmh 30.16 in1021.3 mb - 0.00 in0.0 mm 0.08 in2.0 mm
01:20 PM 48.7°F9.3°C 45.0°F7.2°C 87% 1.2 mph NE1.9 kmh NE 1.2 mph1.9 kmh 30.16 in1021.3 mb - 0.00 in0.0 mm 0.08 in2.0 mm
01:30 PM 48.8°F9.3°C 44.8°F7.1°C 86% 1.2 mph ENE1.9 kmh ENE 2.3 mph3.7 kmh 30.16 in1021.3 mb - 0.00 in0.0 mm 0.08 in2.0 mm
01:40 PM 49.0°F9.4°C 44.7°F7.1°C 85% Calm Calm -- 30.15 in1021.0 mb - 0.00 in0.0 mm 0.08 in2.0 mm
01:50 PM 49.1°F9.5°C 44.5°F6.9°C 84% Calm Calm -- 30.15 in1021.0 mb - 0.00 in0.0 mm 0.08 in2.0 mm
02:00 PM 49.2°F9.6°C 44.3°F6.8°C 83% Calm Calm -- 30.15 in1021.0 mb - 0.00 in0.0 mm 0.08 in2.0 mm
02:10 PM 49.1°F9.5°C 43.8°F6.6°C 82% 1.2 mph NE1.9 kmh NE 2.3 mph3.7 kmh 30.16 in1021.3 mb - 0.00 in0.0 mm 0.08 in2.0 mm
02:20 PM 49.1°F9.5°C 43.8°F6.6°C 82% Calm Calm -- 30.16 in1021.3 mb - 0.00 in0.0 mm 0.08 in2.0 mm
02:30 PM 49.2°F9.6°C 44.0°F6.7°C 82% Calm Calm -- 30.15 in1021.0 mb - 0.00 in0.0 mm 0.08 in2.0 mm
02:40 PM 49.5°F9.7°C 44.2°F6.8°C 82% 1.2 mph NE1.9 kmh NE 3.5 mph5.6 kmh 30.16 in1021.3 mb - 0.00 in0.0 mm 0.08 in2.0 mm
02:50 PM 49.7°F9.8°C 44.1°F6.7°C 81% Calm Calm -- 30.15 in1021.0 mb - 0.00 in0.0 mm 0.08 in2.0 mm
03:00 PM 49.8°F9.9°C 44.2°F6.8°C 81% Calm Calm 3.5 mph5.6 kmh 30.15 in1021.0 mb - 0.00 in0.0 mm 0.08 in2.0 mm
03:10 PM 49.7°F9.8°C 44.1°F6.7°C 81% Calm Calm -- 30.14 in1020.7 mb - 0.00 in0.0 mm 0.08 in2.0 mm
03:20 PM 49.7°F9.8°C 43.8°F6.6°C 80% 2.3 mph NE3.7 kmh NE 4.6 mph7.4 kmh 30.14 in1020.7 mb - 0.00 in0.0 mm 0.08 in2.0 mm
03:30 PM 49.5°F9.7°C 43.6°F6.4°C 80% Calm Calm -- 30.14 in1020.7 mb - 0.00 in0.0 mm 0.08 in2.0 mm
03:40 PM 49.4°F9.7°C 43.5°F6.4°C 80% Calm Calm -- 30.14 in1020.7 mb - 0.00 in0.0 mm 0.08 in2.0 mm
03:50 PM 49.4°F9.7°C 43.5°F6.4°C 80% Calm Calm -- 30.14 in1020.7 mb - 0.00 in0.0 mm 0.08 in2.0 mm
04:00 PM 49.4°F9.7°C 43.5°F6.4°C 80% Calm Calm -- 30.15 in1021.0 mb - 0.00 in0.0 mm 0.08 in2.0 mm
04:10 PM 49.3°F9.6°C 43.7°F6.5°C 81% Calm Calm -- 30.15 in1021.0 mb - 0.00 in0.0 mm 0.08 in2.0 mm
04:20 PM 49.1°F9.5°C 43.2°F6.2°C 80% 1.2 mph ENE1.9 kmh ENE 2.3 mph3.7 kmh 30.15 in1021.0 mb - 0.00 in0.0 mm 0.08 in2.0 mm
04:30 PM 49.0°F9.4°C 43.1°F6.2°C 80% Calm Calm -- 30.15 in1021.0 mb - 0.00 in0.0 mm 0.08 in2.0 mm
04:40 PM 49.0°F9.4°C 43.4°F6.3°C 81% Calm Calm -- 30.15 in1021.0 mb - 0.00 in0.0 mm 0.08 in2.0 mm
04:50 PM 48.7°F9.3°C 43.4°F6.3°C 82% Calm Calm -- 30.15 in1021.0 mb - 0.00 in0.0 mm 0.08 in2.0 mm
05:00 PM 48.2°F9.0°C 43.6°F6.4°C 84% Calm Calm -- 30.15 in1021.0 mb - 0.00 in0.0 mm 0.08 in2.0 mm
05:10 PM 48.0°F8.9°C 43.7°F6.5°C 85% Calm Calm -- 30.15 in1021.0 mb - 0.00 in0.0 mm 0.08 in2.0 mm
05:20 PM 47.8°F8.8°C 43.8°F6.6°C 86% Calm Calm -- 30.15 in1021.0 mb - 0.00 in0.0 mm 0.08 in2.0 mm
05:30 PM 47.7°F8.7°C 44.0°F6.7°C 87% Calm Calm -- 30.15 in1021.0 mb - 0.00 in0.0 mm 0.08 in2.0 mm
05:40 PM 47.5°F8.6°C 43.8°F6.6°C 87% Calm Calm -- 30.16 in1021.3 mb - 0.00 in0.0 mm 0.08 in2.0 mm
05:50 PM 47.4°F8.6°C 43.7°F6.5°C 87% Calm Calm -- 30.16 in1021.3 mb - 0.00 in0.0 mm 0.08 in2.0 mm
06:00 PM 47.3°F8.5°C 43.6°F6.4°C 87% Calm Calm -- 30.15 in1021.0 mb - 0.00 in0.0 mm 0.08 in2.0 mm
06:10 PM 47.2°F8.4°C 43.5°F6.4°C 87% Calm Calm -- 30.15 in1021.0 mb - 0.00 in0.0 mm 0.08 in2.0 mm
06:20 PM 47.2°F8.4°C 43.8°F6.6°C 88% Calm Calm -- 30.15 in1021.0 mb - 0.00 in0.0 mm 0.08 in2.0 mm
06:30 PM 47.0°F8.3°C 43.6°F6.4°C 88% Calm Calm -- 30.14 in1020.7 mb - 0.00 in0.0 mm 0.08 in2.0 mm
06:40 PM 47.0°F8.3°C 43.6°F6.4°C 88% Calm Calm -- 30.14 in1020.7 mb - 0.00 in0.0 mm 0.08 in2.0 mm
06:50 PM 46.9°F8.3°C 43.5°F6.4°C 88% Calm Calm -- 30.15 in1021.0 mb - 0.00 in0.0 mm 0.08 in2.0 mm
07:00 PM 46.9°F8.3°C 43.5°F6.4°C 88% Calm Calm -- 30.15 in1021.0 mb - 0.00 in0.0 mm 0.08 in2.0 mm
07:10 PM 46.9°F8.3°C 43.6°F6.4°C 88% Calm Calm -- 30.15 in1021.0 mb - 0.00 in0.0 mm 0.08 in2.0 mm
07:20 PM 46.9°F8.3°C 43.5°F6.4°C 88% Calm Calm -- 30.14 in1020.7 mb - 0.00 in0.0 mm 0.08 in2.0 mm
07:30 PM 46.8°F8.2°C 43.5°F6.4°C 88% Calm Calm -- 30.14 in1020.7 mb - 0.00 in0.0 mm 0.08 in2.0 mm
07:40 PM 46.8°F8.2°C 43.4°F6.3°C 88% Calm Calm -- 30.14 in1020.7 mb - 0.00 in0.0 mm 0.08 in2.0 mm
07:50 PM 46.8°F8.2°C 43.4°F6.3°C 88% Calm Calm -- 30.14 in1020.7 mb - 0.00 in0.0 mm 0.08 in2.0 mm
08:00 PM 46.8°F8.2°C 43.5°F6.4°C 88% Calm Calm -- 30.14 in1020.7 mb - 0.00 in0.0 mm 0.08 in2.0 mm
08:10 PM 46.9°F8.3°C 43.8°F6.6°C 89% Calm Calm -- 30.15 in1021.0 mb - 0.00 in0.0 mm 0.08 in2.0 mm
08:20 PM 46.9°F8.3°C 43.5°F6.4°C 88% Calm Calm -- 30.15 in1021.0 mb - 0.00 in0.0 mm 0.08 in2.0 mm
08:30 PM 46.9°F8.3°C 43.5°F6.4°C 88% Calm Calm -- 30.15 in1021.0 mb - 0.00 in0.0 mm 0.08 in2.0 mm
08:40 PM 46.9°F8.3°C 43.5°F6.4°C 88% Calm Calm -- 30.15 in1021.0 mb - 0.00 in0.0 mm 0.08 in2.0 mm
08:50 PM 46.9°F8.3°C 43.5°F6.4°C 88% Calm Calm -- 30.15 in1021.0 mb - 0.00 in0.0 mm 0.08 in2.0 mm
09:00 PM 46.9°F8.3°C 43.5°F6.4°C 88% Calm Calm -- 30.14 in1020.7 mb - 0.00 in0.0 mm 0.08 in2.0 mm
09:10 PM 47.0°F8.3°C 43.6°F6.4°C 88% Calm Calm -- 30.14 in1020.7 mb - 0.00 in0.0 mm 0.08 in2.0 mm
09:20 PM 47.0°F8.3°C 43.9°F6.6°C 89% Calm Calm -- 30.14 in1020.7 mb - 0.00 in0.0 mm 0.08 in2.0 mm
09:30 PM 47.0°F8.3°C 43.6°F6.4°C 88% Calm Calm -- 30.14 in1020.7 mb - 0.00 in0.0 mm 0.08 in2.0 mm
09:40 PM 47.0°F8.3°C 43.9°F6.6°C 89% Calm Calm -- 30.14 in1020.7 mb - 0.00 in0.0 mm 0.08 in2.0 mm
09:50 PM 47.0°F8.3°C 43.9°F6.6°C 89% Calm Calm -- 30.14 in1020.7 mb - 0.00 in0.0 mm 0.08 in2.0 mm
10:00 PM 47.0°F8.3°C 43.9°F6.6°C 89% Calm Calm -- 30.14 in1020.7 mb - 0.00 in0.0 mm 0.08 in2.0 mm
10:10 PM 47.0°F8.3°C 44.0°F6.7°C 89% Calm Calm -- 30.14 in1020.7 mb - 0.00 in0.0 mm 0.08 in2.0 mm
10:20 PM 47.1°F8.4°C 44.0°F6.7°C 89% Calm Calm -- 30.14 in1020.7 mb - 0.00 in0.0 mm 0.08 in2.0 mm
10:30 PM 47.1°F8.4°C 44.0°F6.7°C 89% Calm Calm -- 30.14 in1020.7 mb - 0.00 in0.0 mm 0.08 in2.0 mm
10:40 PM 47.1°F8.4°C 44.0°F6.7°C 89% Calm Calm -- 30.15 in1021.0 mb - 0.00 in0.0 mm 0.08 in2.0 mm
10:50 PM 47.2°F8.4°C 44.1°F6.7°C 89% Calm Calm -- 30.14 in1020.7 mb - 0.00 in0.0 mm 0.08 in2.0 mm
11:00 PM 47.2°F8.4°C 44.1°F6.7°C 89% Calm Calm -- 30.14 in1020.7 mb - 0.00 in0.0 mm 0.10 in2.5 mm
11:10 PM 47.2°F8.4°C 44.1°F6.7°C 89% Calm Calm -- 30.14 in1020.7 mb - 0.00 in0.0 mm 0.10 in2.5 mm
11:20 PM 47.2°F8.4°C 44.2°F6.8°C 89% Calm Calm -- 30.14 in1020.7 mb - 0.00 in0.0 mm 0.10 in2.5 mm
11:30 PM 47.2°F8.4°C 44.1°F6.7°C 89% Calm Calm -- 30.14 in1020.7 mb - 0.00 in0.0 mm 0.10 in2.5 mm
11:40 PM 47.2°F8.4°C 44.1°F6.7°C 89% Calm Calm -- 30.13 in1020.3 mb - 0.00 in0.0 mm 0.10 in2.5 mm
11:50 PM 47.2°F8.4°C 44.1°F6.7°C 89% Calm Calm -- 30.13 in1020.3 mb - 0.00 in0.0 mm 0.10 in2.5 mm